Terminal Aerodrome Forecast
Issued by NWS Corpus Christi, TX

Home | Current Version | Previous Version | Text Only | Print | Product List | Glossary On
Versions: 1 2 3 4 5 6 7 8 9 10 11 12 13 14 15
000
FTUS44 KCRP 292335
TAFVCT
TAF
KVCT 292335Z 3000/3024 15015G25KT 5SM HZ BKN025
     FM300400 15015G22KT P6SM VCTS BKN025CB
      TEMPO 3004/3006 3SM TSRA OVC015CB
     FM300700 34015G22KT P6SM OVC045
     FM301500 35012G18KT P6SM SCT045
     FM302100 33010KT P6SM FEW250=

USA.gov is the U.S. government's official web portal to all federal, state and local government web resources and services.